sensor_id;sensor_type;location;lat;lon;timestamp;temperature;humidity
30865;DHT22;17574;49.418;11.038;2023-04-12T00:02:36;6.70;35.00
30865;DHT22;17574;49.418;11.038;2023-04-12T00:05:03;6.70;34.00
30865;DHT22;17574;49.418;11.038;2023-04-12T00:12:24;6.70;33.60
30865;DHT22;17574;49.418;11.038;2023-04-12T00:17:18;6.60;32.80
30865;DHT22;17574;49.418;11.038;2023-04-12T00:27:07;6.70;30.70
30865;DHT22;17574;49.418;11.038;2023-04-12T00:29:34;6.60;30.60
30865;DHT22;17574;49.418;11.038;2023-04-12T00:32:00;6.60;31.50
30865;DHT22;17574;49.418;11.038;2023-04-12T00:36:56;6.50;32.00
30865;DHT22;17574;49.418;11.038;2023-04-12T00:41:49;6.60;30.40
30865;DHT22;17574;49.418;11.038;2023-04-12T00:58:59;6.70;27.10
30865;DHT22;17574;49.418;11.038;2023-04-12T01:19:18;6.70;27.50
30865;DHT22;17574;49.418;11.038;2023-04-12T01:24:39;6.70;27.50
30865;DHT22;17574;49.418;11.038;2023-04-12T01:27:09;6.60;29.60
30865;DHT22;17574;49.418;11.038;2023-04-12T01:29:39;6.60;29.80
30865;DHT22;17574;49.418;11.038;2023-04-12T01:32:06;6.60;30.20
30865;DHT22;17574;49.418;11.038;2023-04-12T01:56:40;6.80;26.30
30865;DHT22;17574;49.418;11.038;2023-04-12T02:06:30;6.80;27.30
30865;DHT22;17574;49.418;11.038;2023-04-12T02:23:40;6.60;29.90
30865;DHT22;17574;49.418;11.038;2023-04-12T02:28:37;6.60;30.70
30865;DHT22;17574;49.418;11.038;2023-04-12T02:31:04;6.60;31.00
30865;DHT22;17574;49.418;11.038;2023-04-12T02:33:32;6.50;33.30
30865;DHT22;17574;49.418;11.038;2023-04-12T02:38:28;6.50;32.70
30865;DHT22;17574;49.418;11.038;2023-04-12T02:40:54;6.60;34.40
30865;DHT22;17574;49.418;11.038;2023-04-12T02:43:21;6.60;33.60
30865;DHT22;17574;49.418;11.038;2023-04-12T02:45:48;6.60;32.70
30865;DHT22;17574;49.418;11.038;2023-04-12T02:48:15;6.60;33.60
30865;DHT22;17574;49.418;11.038;2023-04-12T02:50:42;6.60;33.40
30865;DHT22;17574;49.418;11.038;2023-04-12T02:53:08;6.60;33.80
30865;DHT22;17574;49.418;11.038;2023-04-12T02:55:35;6.70;33.40
30865;DHT22;17574;49.418;11.038;2023-04-12T02:58:03;6.60;33.20
30865;DHT22;17574;49.418;11.038;2023-04-12T03:02:57;6.70;35.40
30865;DHT22;17574;49.418;11.038;2023-04-12T03:05:24;6.70;36.90
30865;DHT22;17574;49.418;11.038;2023-04-12T03:10:19;6.80;33.30
30865;DHT22;17574;49.418;11.038;2023-04-12T03:20:08;6.90;31.70
30865;DHT22;17574;49.418;11.038;2023-04-12T03:25:03;6.90;30.90
30865;DHT22;17574;49.418;11.038;2023-04-12T03:27:30;6.80;32.10
30865;DHT22;17574;49.418;11.038;2023-04-12T03:29:56;6.80;31.60
30865;DHT22;17574;49.418;11.038;2023-04-12T03:32:23;6.80;32.90
30865;DHT22;17574;49.418;11.038;2023-04-12T03:34:49;6.80;32.90
30865;DHT22;17574;49.418;11.038;2023-04-12T03:37:16;6.80;33.60
30865;DHT22;17574;49.418;11.038;2023-04-12T03:39:43;6.70;34.00
30865;DHT22;17574;49.418;11.038;2023-04-12T03:42:13;7.20;34.50
30865;DHT22;17574;49.418;11.038;2023-04-12T03:44:57;6.70;34.60
30865;DHT22;17574;49.418;11.038;2023-04-12T03:47:24;6.70;35.20
30865;DHT22;17574;49.418;11.038;2023-04-12T03:49:50;6.70;36.90
30865;DHT22;17574;49.418;11.038;2023-04-12T03:52:37;6.70;36.90
30865;DHT22;17574;49.418;11.038;2023-04-12T03:55:04;5.50;35.60
30865;DHT22;17574;49.418;11.038;2023-04-12T03:57:33;6.80;37.00
30865;DHT22;17574;49.418;11.038;2023-04-12T04:00:00;6.70;36.30
30865;DHT22;17574;49.418;11.038;2023-04-12T04:02:26;6.60;36.30
30865;DHT22;17574;49.418;11.038;2023-04-12T04:04:53;6.80;36.40
30865;DHT22;17574;49.418;11.038;2023-04-12T04:07:20;6.80;36.40
30865;DHT22;17574;49.418;11.038;2023-04-12T04:12:15;6.90;36.50
30865;DHT22;17574;49.418;11.038;2023-04-12T04:14:42;6.90;36.50
30865;DHT22;17574;49.418;11.038;2023-04-12T04:17:08;6.90;37.20
30865;DHT22;17574;49.418;11.038;2023-04-12T04:19:35;6.90;38.10
30865;DHT22;17574;49.418;11.038;2023-04-12T04:22:01;6.90;38.50
30865;DHT22;17574;49.418;11.038;2023-04-12T04:24:28;7.00;39.20
30865;DHT22;17574;49.418;11.038;2023-04-12T04:26:55;6.90;40.60
30865;DHT22;17574;49.418;11.038;2023-04-12T04:29:21;6.90;40.90
30865;DHT22;17574;49.418;11.038;2023-04-12T04:31:49;7.00;41.90
30865;DHT22;17574;49.418;11.038;2023-04-12T04:34:16;7.00;43.50
30865;DHT22;17574;49.418;11.038;2023-04-12T04:36:44;7.20;42.90
30865;DHT22;17574;49.418;11.038;2023-04-12T04:39:12;7.20;43.00
30865;DHT22;17574;49.418;11.038;2023-04-12T04:41:38;7.10;43.70
30865;DHT22;17574;49.418;11.038;2023-04-12T04:44:07;7.10;44.10
30865;DHT22;17574;49.418;11.038;2023-04-12T04:46:36;7.10;45.30
30865;DHT22;17574;49.418;11.038;2023-04-12T04:49:04;7.10;47.60
30865;DHT22;17574;49.418;11.038;2023-04-12T04:51:31;7.10;47.60
30865;DHT22;17574;49.418;11.038;2023-04-12T04:53:59;7.10;47.60
30865;DHT22;17574;49.418;11.038;2023-04-12T04:56:26;7.20;48.20
30865;DHT22;17574;49.418;11.038;2023-04-12T04:58:52;7.20;50.00
30865;DHT22;17574;49.418;11.038;2023-04-12T05:01:22;7.20;50.80
30865;DHT22;17574;49.418;11.038;2023-04-12T05:03:54;7.20;51.60
30865;DHT22;17574;49.418;11.038;2023-04-12T05:06:21;7.20;53.80
30865;DHT22;17574;49.418;11.038;2023-04-12T05:08:48;7.30;55.20
30865;DHT22;17574;49.418;11.038;2023-04-12T05:11:15;7.30;55.40
30865;DHT22;17574;49.418;11.038;2023-04-12T05:13:41;7.40;56.40
30865;DHT22;17574;49.418;11.038;2023-04-12T05:23:35;7.70;57.00
30865;DHT22;17574;49.418;11.038;2023-04-12T05:26:02;7.60;58.50
30865;DHT22;17574;49.418;11.038;2023-04-12T05:28:29;7.70;58.80
30865;DHT22;17574;49.418;11.038;2023-04-12T05:30:56;7.60;58.50
30865;DHT22;17574;49.418;11.038;2023-04-12T05:33:22;7.70;58.70
30865;DHT22;17574;49.418;11.038;2023-04-12T05:35:49;7.80;58.80
30865;DHT22;17574;49.418;11.038;2023-04-12T05:38:16;7.80;59.80
30865;DHT22;17574;49.418;11.038;2023-04-12T05:40:44;7.80;61.10
30865;DHT22;17574;49.418;11.038;2023-04-12T05:43:10;7.90;61.50
30865;DHT22;17574;49.418;11.038;2023-04-12T05:45:38;10.00;63.10
30865;DHT22;17574;49.418;11.038;2023-04-12T05:48:05;7.90;61.70
30865;DHT22;17574;49.418;11.038;2023-04-12T05:50:32;8.00;60.30
30865;DHT22;17574;49.418;11.038;2023-04-12T05:52:59;8.00;60.70
30865;DHT22;17574;49.418;11.038;2023-04-12T05:55:27;8.00;60.00
30865;DHT22;17574;49.418;11.038;2023-04-12T05:57:54;8.00;60.90
30865;DHT22;17574;49.418;11.038;2023-04-12T06:00:20;8.10;61.20
30865;DHT22;17574;49.418;11.038;2023-04-12T06:02:47;8.50;62.70
30865;DHT22;17574;49.418;11.038;2023-04-12T06:05:15;8.20;65.00
30865;DHT22;17574;49.418;11.038;2023-04-12T06:07:43;8.20;65.50
30865;DHT22;17574;49.418;11.038;2023-04-12T06:10:14;8.30;64.10
30865;DHT22;17574;49.418;11.038;2023-04-12T06:12:44;8.30;65.30
30865;DHT22;17574;49.418;11.038;2023-04-12T06:15:11;8.40;65.90
30865;DHT22;17574;49.418;11.038;2023-04-12T06:17:37;8.40;65.60
30865;DHT22;17574;49.418;11.038;2023-04-12T06:20:04;8.40;69.50
30865;DHT22;17574;49.418;11.038;2023-04-12T06:22:33;8.40;72.00
30865;DHT22;17574;49.418;11.038;2023-04-12T06:25:00;8.40;75.00
30865;DHT22;17574;49.418;11.038;2023-04-12T06:27:27;8.40;75.40
30865;DHT22;17574;49.418;11.038;2023-04-12T06:29:54;8.40;77.20
30865;DHT22;17574;49.418;11.038;2023-04-12T06:32:21;8.40;76.60
30865;DHT22;17574;49.418;11.038;2023-04-12T06:34:48;8.40;76.50
30865;DHT22;17574;49.418;11.038;2023-04-12T06:37:15;8.40;77.10
30865;DHT22;17574;49.418;11.038;2023-04-12T06:39:41;8.40;77.10
30865;DHT22;17574;49.418;11.038;2023-04-12T06:42:08;8.40;77.10
30865;DHT22;17574;49.418;11.038;2023-04-12T06:44:34;8.40;78.50
30865;DHT22;17574;49.418;11.038;2023-04-12T06:47:01;8.30;80.60
30865;DHT22;17574;49.418;11.038;2023-04-12T06:49:28;8.40;81.30
30865;DHT22;17574;49.418;11.038;2023-04-12T06:51:54;8.40;82.30
30865;DHT22;17574;49.418;11.038;2023-04-12T06:54:21;8.40;80.60
30865;DHT22;17574;49.418;11.038;2023-04-12T06:56:49;8.50;81.20
30865;DHT22;17574;49.418;11.038;2023-04-12T06:59:15;8.50;79.00
30865;DHT22;17574;49.418;11.038;2023-04-12T07:01:43;8.50;79.70
30865;DHT22;17574;49.418;11.038;2023-04-12T07:04:10;8.50;78.30
30865;DHT22;17574;49.418;11.038;2023-04-12T07:06:36;8.60;77.20
30865;DHT22;17574;49.418;11.038;2023-04-12T07:09:03;8.60;75.10
30865;DHT22;17574;49.418;11.038;2023-04-12T07:11:30;8.60;75.20
30865;DHT22;17574;49.418;11.038;2023-04-12T07:13:57;8.50;73.20
30865;DHT22;17574;49.418;11.038;2023-04-12T07:16:28;8.50;74.10
30865;DHT22;17574;49.418;11.038;2023-04-12T07:18:55;8.50;74.80
30865;DHT22;17574;49.418;11.038;2023-04-12T07:21:22;8.50;75.50
30865;DHT22;17574;49.418;11.038;2023-04-12T07:23:48;8.60;76.70
30865;DHT22;17574;49.418;11.038;2023-04-12T07:26:16;8.60;75.10
30865;DHT22;17574;49.418;11.038;2023-04-12T07:28:44;8.60;74.20
30865;DHT22;17574;49.418;11.038;2023-04-12T07:31:11;8.70;74.80
30865;DHT22;17574;49.418;11.038;2023-04-12T07:33:37;8.70;75.10
30865;DHT22;17574;49.418;11.038;2023-04-12T07:36:08;8.70;74.20
30865;DHT22;17574;49.418;11.038;2023-04-12T07:38:35;12.20;74.10
30865;DHT22;17574;49.418;11.038;2023-04-12T07:41:01;8.90;72.90
30865;DHT22;17574;49.418;11.038;2023-04-12T07:43:28;8.90;73.80
30865;DHT22;17574;49.418;11.038;2023-04-12T07:45:54;8.90;73.90
30865;DHT22;17574;49.418;11.038;2023-04-12T07:48:21;8.90;72.30
30865;DHT22;17574;49.418;11.038;2023-04-12T07:50:48;9.00;72.00
30865;DHT22;17574;49.418;11.038;2023-04-12T07:53:21;9.50;73.90
30865;DHT22;17574;49.418;11.038;2023-04-12T07:55:49;9.10;75.00
30865;DHT22;17574;49.418;11.038;2023-04-12T07:58:16;9.10;72.40
30865;DHT22;17574;49.418;11.038;2023-04-12T08:00:43;9.20;72.80
30865;DHT22;17574;49.418;11.038;2023-04-12T08:03:10;9.40;73.70
30865;DHT22;17574;49.418;11.038;2023-04-12T08:05:37;9.40;69.40
30865;DHT22;17574;49.418;11.038;2023-04-12T08:08:03;9.50;69.40
30865;DHT22;17574;49.418;11.038;2023-04-12T08:10:31;9.60;69.60
30865;DHT22;17574;49.418;11.038;2023-04-12T08:15:25;9.50;67.10
30865;DHT22;17574;49.418;11.038;2023-04-12T08:17:51;9.80;71.90
30865;DHT22;17574;49.418;11.038;2023-04-12T08:20:18;10.00;68.20
30865;DHT22;17574;49.418;11.038;2023-04-12T08:25:12;10.70;57.40
30865;DHT22;17574;49.418;11.038;2023-04-12T08:27:42;10.70;57.70
30865;DHT22;17574;49.418;11.038;2023-04-12T08:30:09;10.80;58.10
30865;DHT22;17574;49.418;11.038;2023-04-12T08:32:36;10.90;56.80
30865;DHT22;17574;49.418;11.038;2023-04-12T08:35:04;10.90;60.90
30865;DHT22;17574;49.418;11.038;2023-04-12T08:37:30;11.20;52.10
30865;DHT22;17574;49.418;11.038;2023-04-12T08:40:01;11.10;50.30
30865;DHT22;17574;49.418;11.038;2023-04-12T08:42:29;10.90;50.00
30865;DHT22;17574;49.418;11.038;2023-04-12T08:44:57;10.80;53.70
30865;DHT22;17574;49.418;11.038;2023-04-12T08:47:23;10.80;56.70
30865;DHT22;17574;49.418;11.038;2023-04-12T08:52:17;10.70;60.80
30865;DHT22;17574;49.418;11.038;2023-04-12T08:54:44;11.50;59.90
30865;DHT22;17574;49.418;11.038;2023-04-12T08:57:10;10.70;61.60
30865;DHT22;17574;49.418;11.038;2023-04-12T08:59:38;10.60;58.50
30865;DHT22;17574;49.418;11.038;2023-04-12T09:02:07;13.30;63.00
30865;DHT22;17574;49.418;11.038;2023-04-12T09:04:45;10.80;59.80
30865;DHT22;17574;49.418;11.038;2023-04-12T09:07:12;10.90;60.90
30865;DHT22;17574;49.418;11.038;2023-04-12T09:09:48;10.90;60.90
30865;DHT22;17574;49.418;11.038;2023-04-12T09:12:15;10.50;60.60
30865;DHT22;17574;49.418;11.038;2023-04-12T09:14:42;10.40;65.00
30865;DHT22;17574;49.418;11.038;2023-04-12T09:17:22;10.30;69.20
30865;DHT22;17574;49.418;11.038;2023-04-12T09:19:49;10.20;70.90
30865;DHT22;17574;49.418;11.038;2023-04-12T09:22:16;10.10;72.70
30865;DHT22;17574;49.418;11.038;2023-04-12T09:24:49;10.00;72.90
30865;DHT22;17574;49.418;11.038;2023-04-12T09:27:18;10.10;74.90
30865;DHT22;17574;49.418;11.038;2023-04-12T09:29:48;10.10;74.50
30865;DHT22;17574;49.418;11.038;2023-04-12T09:32:26;9.90;77.30
30865;DHT22;17574;49.418;11.038;2023-04-12T09:34:56;9.90;77.50
30865;DHT22;17574;49.418;11.038;2023-04-12T09:37:23;9.90;77.10
30865;DHT22;17574;49.418;11.038;2023-04-12T09:39:57;10.50;74.90
30865;DHT22;17574;49.418;11.038;2023-04-12T09:42:24;9.90;78.20
30865;DHT22;17574;49.418;11.038;2023-04-12T09:45:00;9.80;78.20
30865;DHT22;17574;49.418;11.038;2023-04-12T09:47:37;10.30;77.70
30865;DHT22;17574;49.418;11.038;2023-04-12T09:50:05;9.80;78.20
30865;DHT22;17574;49.418;11.038;2023-04-12T09:52:36;9.70;78.10
30865;DHT22;17574;49.418;11.038;2023-04-12T09:55:06;9.70;78.20
30865;DHT22;17574;49.418;11.038;2023-04-12T09:57:40;9.70;78.70
30865;DHT22;17574;49.418;11.038;2023-04-12T10:00:08;9.70;82.20
30865;DHT22;17574;49.418;11.038;2023-04-12T10:02:40;9.80;80.40
30865;DHT22;17574;49.418;11.038;2023-04-12T10:05:09;9.70;79.50
30865;DHT22;17574;49.418;11.038;2023-04-12T10:07:39;9.70;82.60
30865;DHT22;17574;49.418;11.038;2023-04-12T10:10:11;9.70;84.10
30865;DHT22;17574;49.418;11.038;2023-04-12T10:12:38;9.80;80.70
30865;DHT22;17574;49.418;11.038;2023-04-12T10:15:06;9.90;82.00
30865;DHT22;17574;49.418;11.038;2023-04-12T10:17:40;10.00;79.30
30865;DHT22;17574;49.418;11.038;2023-04-12T10:20:07;10.00;79.20
30865;DHT22;17574;49.418;11.038;2023-04-12T10:22:37;10.40;77.90
30865;DHT22;17574;49.418;11.038;2023-04-12T10:25:04;10.60;74.70
30865;DHT22;17574;49.418;11.038;2023-04-12T10:27:31;10.70;71.10
30865;DHT22;17574;49.418;11.038;2023-04-12T10:30:17;10.70;76.70
30865;DHT22;17574;49.418;11.038;2023-04-12T10:32:44;10.70;75.90
30865;DHT22;17574;49.418;11.038;2023-04-12T11:18:33;12.30;64.80
30865;DHT22;17574;49.418;11.038;2023-04-12T11:21:01;12.00;61.20
30865;DHT22;17574;49.418;11.038;2023-04-12T11:23:29;11.70;56.30
30865;DHT22;17574;49.418;11.038;2023-04-12T11:25:57;11.20;61.20
30865;DHT22;17574;49.418;11.038;2023-04-12T11:28:24;11.40;70.20
30865;DHT22;17574;49.418;11.038;2023-04-12T11:30:57;11.30;72.80
30865;DHT22;17574;49.418;11.038;2023-04-12T11:33:36;12.20;72.20
30865;DHT22;17574;49.418;11.038;2023-04-12T11:36:07;11.40;70.50
30865;DHT22;17574;49.418;11.038;2023-04-12T11:38:34;11.50;72.30
30865;DHT22;17574;49.418;11.038;2023-04-12T11:41:02;11.40;72.40
30865;DHT22;17574;49.418;11.038;2023-04-12T11:43:30;11.40;73.30
30865;DHT22;17574;49.418;11.038;2023-04-12T11:45:57;11.30;71.60
30865;DHT22;17574;49.418;11.038;2023-04-12T11:48:25;11.50;75.40
30865;DHT22;17574;49.418;11.038;2023-04-12T11:50:51;11.50;73.40
30865;DHT22;17574;49.418;11.038;2023-04-12T11:53:36;11.50;73.60
30865;DHT22;17574;49.418;11.038;2023-04-12T11:56:02;11.50;75.00
30865;DHT22;17574;49.418;11.038;2023-04-12T11:58:29;11.50;74.70
30865;DHT22;17574;49.418;11.038;2023-04-12T12:00:56;11.50;75.70
30865;DHT22;17574;49.418;11.038;2023-04-12T12:03:23;11.60;76.00
30865;DHT22;17574;49.418;11.038;2023-04-12T12:05:51;11.70;75.50
30865;DHT22;17574;49.418;11.038;2023-04-12T12:08:17;11.80;75.50
30865;DHT22;17574;49.418;11.038;2023-04-12T12:10:45;12.30;71.00
30865;DHT22;17574;49.418;11.038;2023-04-12T12:13:17;11.80;73.70
30865;DHT22;17574;49.418;11.038;2023-04-12T12:15:44;11.80;70.50
30865;DHT22;17574;49.418;11.038;2023-04-12T12:18:11;11.50;76.90
30865;DHT22;17574;49.418;11.038;2023-04-12T12:20:47;12.00;72.20
30865;DHT22;17574;49.418;11.038;2023-04-12T12:23:28;12.00;72.10
30865;DHT22;17574;49.418;11.038;2023-04-12T12:25:58;11.90;73.90
30865;DHT22;17574;49.418;11.038;2023-04-12T12:28:42;11.90;77.10
30865;DHT22;17574;49.418;11.038;2023-04-12T12:31:10;12.00;75.90
30865;DHT22;17574;49.418;11.038;2023-04-12T12:33:38;12.00;74.10
30865;DHT22;17574;49.418;11.038;2023-04-12T12:36:12;12.40;77.40
30865;DHT22;17574;49.418;11.038;2023-04-12T12:38:42;13.10;61.30
30865;DHT22;17574;49.418;11.038;2023-04-12T12:43:45;13.30;52.40
30865;DHT22;17574;49.418;11.038;2023-04-12T12:46:12;11.90;54.00
30865;DHT22;17574;49.418;11.038;2023-04-12T12:48:40;12.60;61.90
30865;DHT22;17574;49.418;11.038;2023-04-12T12:51:07;12.40;63.20
30865;DHT22;17574;49.418;11.038;2023-04-12T12:53:35;12.40;67.60
30865;DHT22;17574;49.418;11.038;2023-04-12T12:56:02;12.30;69.10
30865;DHT22;17574;49.418;11.038;2023-04-12T12:58:28;12.30;71.30
30865;DHT22;17574;49.418;11.038;2023-04-12T13:00:55;12.50;71.10
30865;DHT22;17574;49.418;11.038;2023-04-12T13:03:22;12.60;68.40
30865;DHT22;17574;49.418;11.038;2023-04-12T13:05:49;12.70;66.90
30865;DHT22;17574;49.418;11.038;2023-04-12T13:08:17;12.60;65.20
30865;DHT22;17574;49.418;11.038;2023-04-12T13:10:43;12.50;71.10
30865;DHT22;17574;49.418;11.038;2023-04-12T13:13:10;12.40;72.70
30865;DHT22;17574;49.418;11.038;2023-04-12T13:15:37;12.60;71.90
30865;DHT22;17574;49.418;11.038;2023-04-12T13:18:04;12.60;69.10
30865;DHT22;17574;49.418;11.038;2023-04-12T13:20:31;13.40;72.00
30865;DHT22;17574;49.418;11.038;2023-04-12T13:22:58;13.00;69.20
30865;DHT22;17574;49.418;11.038;2023-04-12T13:25:24;13.10;71.00
30865;DHT22;17574;49.418;11.038;2023-04-12T13:27:51;13.20;66.90
30865;DHT22;17574;49.418;11.038;2023-04-12T13:30:18;13.10;63.80
30865;DHT22;17574;49.418;11.038;2023-04-12T13:32:45;13.00;65.50
30865;DHT22;17574;49.418;11.038;2023-04-12T13:35:12;12.90;66.30
30865;DHT22;17574;49.418;11.038;2023-04-12T13:37:39;12.90;67.80
30865;DHT22;17574;49.418;11.038;2023-04-12T13:40:05;12.90;69.00
30865;DHT22;17574;49.418;11.038;2023-04-12T13:42:33;13.10;69.90
30865;DHT22;17574;49.418;11.038;2023-04-12T13:44:59;13.40;63.50
30865;DHT22;17574;49.418;11.038;2023-04-12T13:47:26;14.40;55.50
30865;DHT22;17574;49.418;11.038;2023-04-12T13:49:54;14.40;45.90
30865;DHT22;17574;49.418;11.038;2023-04-12T13:52:20;14.50;45.80
30865;DHT22;17574;49.418;11.038;2023-04-12T13:54:47;14.40;43.90
30865;DHT22;17574;49.418;11.038;2023-04-12T13:57:14;14.30;47.80
30865;DHT22;17574;49.418;11.038;2023-04-12T13:59:41;14.00;49.90
30865;DHT22;17574;49.418;11.038;2023-04-12T14:02:07;13.80;53.50
30865;DHT22;17574;49.418;11.038;2023-04-12T14:04:34;13.80;59.50
30865;DHT22;17574;49.418;11.038;2023-04-12T14:07:01;13.90;53.60
30865;DHT22;17574;49.418;11.038;2023-04-12T14:09:28;13.90;53.70
30865;DHT22;17574;49.418;11.038;2023-04-12T14:11:56;13.90;56.40
30865;DHT22;17574;49.418;11.038;2023-04-12T14:14:24;14.20;57.80
30865;DHT22;17574;49.418;11.038;2023-04-12T14:16:51;14.30;54.00
30865;DHT22;17574;49.418;11.038;2023-04-12T14:19:19;14.40;54.00
30865;DHT22;17574;49.418;11.038;2023-04-12T14:21:46;14.50;50.00
30865;DHT22;17574;49.418;11.038;2023-04-12T14:24:13;14.30;49.60
30865;DHT22;17574;49.418;11.038;2023-04-12T14:26:39;14.20;52.10
30865;DHT22;17574;49.418;11.038;2023-04-12T14:29:07;14.20;50.60
30865;DHT22;17574;49.418;11.038;2023-04-12T14:31:33;14.10;52.20
30865;DHT22;17574;49.418;11.038;2023-04-12T14:34:02;14.20;53.90
30865;DHT22;17574;49.418;11.038;2023-04-12T14:36:28;14.30;54.00
30865;DHT22;17574;49.418;11.038;2023-04-12T14:38:56;14.40;52.50
30865;DHT22;17574;49.418;11.038;2023-04-12T14:41:23;14.50;51.00
30865;DHT22;17574;49.418;11.038;2023-04-12T14:43:50;14.70;46.60
30865;DHT22;17574;49.418;11.038;2023-04-12T14:46:16;14.50;43.30
30865;DHT22;17574;49.418;11.038;2023-04-12T14:48:43;14.60;44.90
30865;DHT22;17574;49.418;11.038;2023-04-12T14:51:10;14.80;43.70
30865;DHT22;17574;49.418;11.038;2023-04-12T14:53:36;14.90;38.20
30865;DHT22;17574;49.418;11.038;2023-04-12T14:56:03;15.20;40.50
30865;DHT22;17574;49.418;11.038;2023-04-12T14:58:32;15.80;38.50
30865;DHT22;17574;49.418;11.038;2023-04-12T15:00:58;16.40;27.90
30865;DHT22;17574;49.418;11.038;2023-04-12T15:03:26;16.70;24.40
30865;DHT22;17574;49.418;11.038;2023-04-12T15:05:55;17.00;22.30
30865;DHT22;17574;49.418;11.038;2023-04-12T15:08:24;17.00;17.00
30865;DHT22;17574;49.418;11.038;2023-04-12T15:10:50;17.00;15.20
30865;DHT22;17574;49.418;11.038;2023-04-12T15:13:17;16.60;14.90
30865;DHT22;17574;49.418;11.038;2023-04-12T15:15:46;16.50;18.90
30865;DHT22;17574;49.418;11.038;2023-04-12T15:18:13;16.50;17.80
30865;DHT22;17574;49.418;11.038;2023-04-12T15:20:41;16.40;18.90
30865;DHT22;17574;49.418;11.038;2023-04-12T15:23:07;16.60;19.40
30865;DHT22;17574;49.418;11.038;2023-04-12T15:25:34;16.30;19.50
30865;DHT22;17574;49.418;11.038;2023-04-12T15:28:01;16.30;19.40
30865;DHT22;17574;49.418;11.038;2023-04-12T15:30:28;16.40;19.50
30865;DHT22;17574;49.418;11.038;2023-04-12T15:32:56;16.30;21.20
30865;DHT22;17574;49.418;11.038;2023-04-12T15:35:23;16.50;20.20
30865;DHT22;17574;49.418;11.038;2023-04-12T15:37:52;16.70;18.70
30865;DHT22;17574;49.418;11.038;2023-04-12T15:40:20;16.60;17.20
30865;DHT22;17574;49.418;11.038;2023-04-12T15:42:48;17.20;15.40
30865;DHT22;17574;49.418;11.038;2023-04-12T15:45:15;17.20;12.10
30865;DHT22;17574;49.418;11.038;2023-04-12T15:47:41;17.00;12.40
30865;DHT22;17574;49.418;11.038;2023-04-12T15:50:08;16.60;13.50
30865;DHT22;17574;49.418;11.038;2023-04-12T15:52:35;16.60;14.90
30865;DHT22;17574;49.418;11.038;2023-04-12T15:55:02;16.50;15.80
30865;DHT22;17574;49.418;11.038;2023-04-12T15:57:30;16.40;14.80
30865;DHT22;17574;49.418;11.038;2023-04-12T15:59:57;13.90;14.40
30865;DHT22;17574;49.418;11.038;2023-04-12T16:02:25;16.10;17.70
30865;DHT22;17574;49.418;11.038;2023-04-12T16:04:52;16.00;19.20
30865;DHT22;17574;49.418;11.038;2023-04-12T16:07:21;16.00;22.80
30865;DHT22;17574;49.418;11.038;2023-04-12T16:09:48;16.10;23.90
30865;DHT22;17574;49.418;11.038;2023-04-12T16:12:15;16.00;22.10
30865;DHT22;17574;49.418;11.038;2023-04-12T16:14:42;16.00;22.40
30865;DHT22;17574;49.418;11.038;2023-04-12T16:17:09;15.90;23.70
30865;DHT22;17574;49.418;11.038;2023-04-12T16:19:36;15.60;23.60
30865;DHT22;17574;49.418;11.038;2023-04-12T16:22:03;15.50;26.60
30865;DHT22;17574;49.418;11.038;2023-04-12T16:24:29;15.40;27.20
30865;DHT22;17574;49.418;11.038;2023-04-12T16:26:56;15.40;28.80
30865;DHT22;17574;49.418;11.038;2023-04-12T16:29:22;15.30;28.80
30865;DHT22;17574;49.418;11.038;2023-04-12T16:31:49;15.20;28.90
30865;DHT22;17574;49.418;11.038;2023-04-12T16:34:17;15.10;29.70
30865;DHT22;17574;49.418;11.038;2023-04-12T16:36:47;15.00;32.30
30865;DHT22;17574;49.418;11.038;2023-04-12T16:39:14;15.00;32.70
30865;DHT22;17574;49.418;11.038;2023-04-12T16:41:41;14.90;36.50
30865;DHT22;17574;49.418;11.038;2023-04-12T16:44:09;14.80;40.10
30865;DHT22;17574;49.418;11.038;2023-04-12T16:46:36;14.70;46.30
30865;DHT22;17574;49.418;11.038;2023-04-12T16:49:03;14.60;54.30
30865;DHT22;17574;49.418;11.038;2023-04-12T16:51:30;14.60;59.50
30865;DHT22;17574;49.418;11.038;2023-04-12T16:54:03;14.40;68.10
30865;DHT22;17574;49.418;11.038;2023-04-12T16:56:29;14.30;70.00
30865;DHT22;17574;49.418;11.038;2023-04-12T16:58:56;14.20;72.60
30865;DHT22;17574;49.418;11.038;2023-04-12T17:01:24;14.00;78.10
30865;DHT22;17574;49.418;11.038;2023-04-12T17:03:51;13.90;78.00
30865;DHT22;17574;49.418;11.038;2023-04-12T17:06:18;13.90;74.80
30865;DHT22;17574;49.418;11.038;2023-04-12T17:08:44;13.70;60.90
30865;DHT22;17574;49.418;11.038;2023-04-12T17:11:12;13.60;54.60
30865;DHT22;17574;49.418;11.038;2023-04-12T17:13:38;13.20;61.80
30865;DHT22;17574;49.418;11.038;2023-04-12T17:16:05;12.90;67.20
30865;DHT22;17574;49.418;11.038;2023-04-12T17:18:32;12.90;71.40
30865;DHT22;17574;49.418;11.038;2023-04-12T17:21:00;12.60;74.60
30865;DHT22;17574;49.418;11.038;2023-04-12T17:23:26;12.50;82.70
30865;DHT22;17574;49.418;11.038;2023-04-12T17:25:54;12.50;84.80
30865;DHT22;17574;49.418;11.038;2023-04-12T17:28:21;12.50;87.70
30865;DHT22;17574;49.418;11.038;2023-04-12T17:30:48;12.30;88.40
30865;DHT22;17574;49.418;11.038;2023-04-12T17:33:15;12.50;87.90
30865;DHT22;17574;49.418;11.038;2023-04-12T17:35:43;12.50;87.80
30865;DHT22;17574;49.418;11.038;2023-04-12T17:38:10;12.50;87.70
30865;DHT22;17574;49.418;11.038;2023-04-12T17:40:37;12.50;87.80
30865;DHT22;17574;49.418;11.038;2023-04-12T17:43:03;12.50;89.00
30865;DHT22;17574;49.418;11.038;2023-04-12T17:45:30;12.40;89.30
30865;DHT22;17574;49.418;11.038;2023-04-12T17:47:58;12.40;87.70
30865;DHT22;17574;49.418;11.038;2023-04-12T17:50:25;12.40;87.90
30865;DHT22;17574;49.418;11.038;2023-04-12T17:52:52;12.40;87.70
30865;DHT22;17574;49.418;11.038;2023-04-12T17:55:20;12.30;87.70
30865;DHT22;17574;49.418;11.038;2023-04-12T18:00:18;12.20;87.00
30865;DHT22;17574;49.418;11.038;2023-04-12T19:18:58;11.10;77.90
30865;DHT22;17574;49.418;11.038;2023-04-12T19:21:28;11.10;76.80
30865;DHT22;17574;49.418;11.038;2023-04-12T19:28:50;10.90;80.60
30865;DHT22;17574;49.418;11.038;2023-04-12T19:31:20;10.90;80.30
30865;DHT22;17574;49.418;11.038;2023-04-12T19:36:14;10.80;83.80
30865;DHT22;17574;49.418;11.038;2023-04-12T19:38:41;10.80;80.90
30865;DHT22;17574;49.418;11.038;2023-04-12T19:41:09;10.70;83.30
30865;DHT22;17574;49.418;11.038;2023-04-12T19:43:36;10.80;84.80
30865;DHT22;17574;49.418;11.038;2023-04-12T19:46:05;10.70;85.70
30865;DHT22;17574;49.418;11.038;2023-04-12T19:48:33;10.70;83.60
30865;DHT22;17574;49.418;11.038;2023-04-12T19:51:00;10.70;83.50
30865;DHT22;17574;49.418;11.038;2023-04-12T19:53:27;10.60;81.30
30865;DHT22;17574;49.418;11.038;2023-04-12T19:55:54;10.60;82.10